sensor_id;sensor_type;location;lat;lon;timestamp;P1;durP1;ratioP1;P2;durP2;ratioP2
55417;SDS011;41287;47.554;7.844;2023-01-29T00:02:19;4.53;;;2.20;;
55417;SDS011;41287;47.554;7.844;2023-01-29T00:04:45;3.53;;;1.77;;
55417;SDS011;41287;47.554;7.844;2023-01-29T00:07:12;4.10;;;1.60;;
55417;SDS011;41287;47.554;7.844;2023-01-29T00:09:37;5.88;;;2.00;;
55417;SDS011;41287;47.554;7.844;2023-01-29T00:12:03;4.60;;;1.92;;
55417;SDS011;41287;47.554;7.844;2023-01-29T00:14:29;5.85;;;1.90;;
55417;SDS011;41287;47.554;7.844;2023-01-29T00:16:54;8.95;;;2.35;;
55417;SDS011;41287;47.554;7.844;2023-01-29T00:19:20;2.72;;;1.63;;
55417;SDS011;41287;47.554;7.844;2023-01-29T00:21:45;3.88;;;1.80;;
55417;SDS011;41287;47.554;7.844;2023-01-29T00:24:11;5.05;;;1.75;;
55417;SDS011;41287;47.554;7.844;2023-01-29T00:26:37;6.85;;;2.10;;
55417;SDS011;41287;47.554;7.844;2023-01-29T00:29:06;5.00;;;1.77;;
55417;SDS011;41287;47.554;7.844;2023-01-29T00:31:31;5.25;;;1.70;;
55417;SDS011;41287;47.554;7.844;2023-01-29T00:33:57;6.00;;;1.85;;
55417;SDS011;41287;47.554;7.844;2023-01-29T00:36:24;2.63;;;1.80;;
55417;SDS011;41287;47.554;7.844;2023-01-29T00:38:56;4.45;;;2.03;;
55417;SDS011;41287;47.554;7.844;2023-01-29T00:41:28;6.63;;;1.83;;
55417;SDS011;41287;47.554;7.844;2023-01-29T00:44:14;5.32;;;2.03;;
55417;SDS011;41287;47.554;7.844;2023-01-29T00:46:58;3.92;;;2.03;;
55417;SDS011;41287;47.554;7.844;2023-01-29T00:49:24;5.43;;;2.20;;
55417;SDS011;41287;47.554;7.844;2023-01-29T00:51:49;5.32;;;1.70;;
55417;SDS011;41287;47.554;7.844;2023-01-29T00:54:34;4.88;;;2.10;;
55417;SDS011;41287;47.554;7.844;2023-01-29T00:57:02;7.35;;;1.80;;
55417;SDS011;41287;47.554;7.844;2023-01-29T00:59:28;4.30;;;1.85;;
55417;SDS011;41287;47.554;7.844;2023-01-29T01:01:54;3.90;;;1.58;;
55417;SDS011;41287;47.554;7.844;2023-01-29T01:04:42;5.07;;;2.15;;
55417;SDS011;41287;47.554;7.844;2023-01-29T01:07:07;4.70;;;2.03;;
55417;SDS011;41287;47.554;7.844;2023-01-29T01:09:34;4.43;;;1.90;;
55417;SDS011;41287;47.554;7.844;2023-01-29T01:12:19;5.95;;;1.85;;
55417;SDS011;41287;47.554;7.844;2023-01-29T01:14:46;2.80;;;1.73;;
55417;SDS011;41287;47.554;7.844;2023-01-29T01:17:12;3.47;;;1.52;;
55417;SDS011;41287;47.554;7.844;2023-01-29T01:19:39;5.25;;;2.10;;
55417;SDS011;41287;47.554;7.844;2023-01-29T01:22:04;7.00;;;2.00;;
55417;SDS011;41287;47.554;7.844;2023-01-29T01:24:29;3.92;;;1.90;;
55417;SDS011;41287;47.554;7.844;2023-01-29T01:26:55;4.75;;;1.83;;
55417;SDS011;41287;47.554;7.844;2023-01-29T01:29:20;4.53;;;1.70;;
55417;SDS011;41287;47.554;7.844;2023-01-29T01:31:46;4.95;;;1.83;;
55417;SDS011;41287;47.554;7.844;2023-01-29T01:34:11;4.28;;;1.80;;
55417;SDS011;41287;47.554;7.844;2023-01-29T01:36:37;2.83;;;1.70;;
55417;SDS011;41287;47.554;7.844;2023-01-29T01:39:02;4.60;;;1.98;;
55417;SDS011;41287;47.554;7.844;2023-01-29T01:41:28;4.18;;;1.77;;
55417;SDS011;41287;47.554;7.844;2023-01-29T01:43:55;6.32;;;2.20;;
55417;SDS011;41287;47.554;7.844;2023-01-29T01:46:27;4.57;;;1.92;;
55417;SDS011;41287;47.554;7.844;2023-01-29T01:48:55;4.10;;;1.70;;
55417;SDS011;41287;47.554;7.844;2023-01-29T01:51:26;6.10;;;1.90;;
55417;SDS011;41287;47.554;7.844;2023-01-29T01:54:27;5.80;;;2.13;;
55417;SDS011;41287;47.554;7.844;2023-01-29T01:56:52;3.15;;;1.75;;
55417;SDS011;41287;47.554;7.844;2023-01-29T01:59:29;6.68;;;2.25;;
55417;SDS011;41287;47.554;7.844;2023-01-29T02:01:57;5.57;;;1.95;;
55417;SDS011;41287;47.554;7.844;2023-01-29T02:04:45;5.00;;;1.70;;
55417;SDS011;41287;47.554;7.844;2023-01-29T02:07:31;5.20;;;1.88;;
55417;SDS011;41287;47.554;7.844;2023-01-29T02:10:15;3.47;;;1.92;;
55417;SDS011;41287;47.554;7.844;2023-01-29T02:12:42;3.60;;;1.70;;
55417;SDS011;41287;47.554;7.844;2023-01-29T02:15:09;3.58;;;1.83;;
55417;SDS011;41287;47.554;7.844;2023-01-29T02:17:35;3.05;;;1.85;;
55417;SDS011;41287;47.554;7.844;2023-01-29T02:31:22;2.65;;;1.77;;
55417;SDS011;41287;47.554;7.844;2023-01-29T02:39:14;5.68;;;2.03;;
55417;SDS011;41287;47.554;7.844;2023-01-29T02:47:20;5.35;;;1.98;;
55417;SDS011;41287;47.554;7.844;2023-01-29T02:52:37;3.78;;;2.10;;
55417;SDS011;41287;47.554;7.844;2023-01-29T02:55:09;4.45;;;1.85;;
55417;SDS011;41287;47.554;7.844;2023-01-29T02:57:41;3.42;;;1.52;;
55417;SDS011;41287;47.554;7.844;2023-01-29T03:00:10;4.75;;;2.08;;
55417;SDS011;41287;47.554;7.844;2023-01-29T03:02:50;3.83;;;1.80;;
55417;SDS011;41287;47.554;7.844;2023-01-29T03:05:32;3.97;;;1.80;;
55417;SDS011;41287;47.554;7.844;2023-01-29T03:08:08;3.72;;;1.77;;
55417;SDS011;41287;47.554;7.844;2023-01-29T03:10:38;4.15;;;1.80;;
55417;SDS011;41287;47.554;7.844;2023-01-29T03:13:15;3.65;;;1.90;;
55417;SDS011;41287;47.554;7.844;2023-01-29T03:15:46;4.32;;;1.67;;
55417;SDS011;41287;47.554;7.844;2023-01-29T03:18:20;2.83;;;1.67;;
55417;SDS011;41287;47.554;7.844;2023-01-29T03:20:53;4.75;;;1.50;;
55417;SDS011;41287;47.554;7.844;2023-01-29T03:23:23;3.08;;;1.65;;
55417;SDS011;41287;47.554;7.844;2023-01-29T03:26:11;2.97;;;1.92;;
55417;SDS011;41287;47.554;7.844;2023-01-29T03:28:57;3.90;;;1.95;;
55417;SDS011;41287;47.554;7.844;2023-01-29T03:31:42;6.95;;;1.88;;
55417;SDS011;41287;47.554;7.844;2023-01-29T03:34:27;3.67;;;1.70;;
55417;SDS011;41287;47.554;7.844;2023-01-29T03:37:02;4.80;;;1.73;;
55417;SDS011;41287;47.554;7.844;2023-01-29T03:39:33;2.67;;;1.60;;
55417;SDS011;41287;47.554;7.844;2023-01-29T03:42:04;6.22;;;1.90;;
55417;SDS011;41287;47.554;7.844;2023-01-29T03:47:30;3.50;;;1.60;;
55417;SDS011;41287;47.554;7.844;2023-01-29T03:50:06;8.10;;;1.98;;
55417;SDS011;41287;47.554;7.844;2023-01-29T03:53:06;3.83;;;1.85;;
55417;SDS011;41287;47.554;7.844;2023-01-29T03:55:42;4.22;;;1.67;;
55417;SDS011;41287;47.554;7.844;2023-01-29T03:58:15;2.28;;;1.48;;
55417;SDS011;41287;47.554;7.844;2023-01-29T04:00:51;3.05;;;1.60;;
55417;SDS011;41287;47.554;7.844;2023-01-29T04:03:25;3.05;;;1.67;;
55417;SDS011;41287;47.554;7.844;2023-01-29T04:05:59;2.95;;;1.52;;
55417;SDS011;41287;47.554;7.844;2023-01-29T04:08:37;5.63;;;2.00;;
55417;SDS011;41287;47.554;7.844;2023-01-29T04:11:16;2.95;;;1.60;;
55417;SDS011;41287;47.554;7.844;2023-01-29T04:13:44;2.63;;;1.55;;
55417;SDS011;41287;47.554;7.844;2023-01-29T04:16:12;3.40;;;1.67;;
55417;SDS011;41287;47.554;7.844;2023-01-29T04:18:45;4.03;;;1.70;;
55417;SDS011;41287;47.554;7.844;2023-01-29T04:21:12;3.65;;;1.70;;
55417;SDS011;41287;47.554;7.844;2023-01-29T04:23:38;4.20;;;1.85;;
55417;SDS011;41287;47.554;7.844;2023-01-29T04:29:16;2.25;;;1.40;;
55417;SDS011;41287;47.554;7.844;2023-01-29T04:34:26;2.78;;;1.42;;
55417;SDS011;41287;47.554;7.844;2023-01-29T04:39:26;4.28;;;1.55;;
55417;SDS011;41287;47.554;7.844;2023-01-29T04:44:59;2.90;;;1.58;;
55417;SDS011;41287;47.554;7.844;2023-01-29T04:47:43;3.58;;;1.80;;
55417;SDS011;41287;47.554;7.844;2023-01-29T04:53:33;2.95;;;1.52;;
55417;SDS011;41287;47.554;7.844;2023-01-29T04:56:15;3.17;;;1.65;;
55417;SDS011;41287;47.554;7.844;2023-01-29T04:58:49;3.17;;;1.60;;
55417;SDS011;41287;47.554;7.844;2023-01-29T05:01:18;3.03;;;1.60;;
55417;SDS011;41287;47.554;7.844;2023-01-29T05:03:49;3.83;;;1.48;;
55417;SDS011;41287;47.554;7.844;2023-01-29T05:06:18;3.55;;;1.60;;
55417;SDS011;41287;47.554;7.844;2023-01-29T05:08:45;2.28;;;1.48;;
55417;SDS011;41287;47.554;7.844;2023-01-29T05:11:12;2.47;;;1.65;;
55417;SDS011;41287;47.554;7.844;2023-01-29T05:13:39;2.58;;;1.50;;
55417;SDS011;41287;47.554;7.844;2023-01-29T05:16:07;4.85;;;1.80;;
55417;SDS011;41287;47.554;7.844;2023-01-29T05:18:39;3.97;;;1.83;;
55417;SDS011;41287;47.554;7.844;2023-01-29T05:21:05;4.10;;;1.70;;
55417;SDS011;41287;47.554;7.844;2023-01-29T05:23:32;2.45;;;1.60;;
55417;SDS011;41287;47.554;7.844;2023-01-29T05:25:58;3.13;;;1.40;;
55417;SDS011;41287;47.554;7.844;2023-01-29T05:28:23;3.17;;;1.40;;
55417;SDS011;41287;47.554;7.844;2023-01-29T05:30:49;2.60;;;1.20;;
55417;SDS011;41287;47.554;7.844;2023-01-29T05:33:34;3.15;;;1.40;;
55417;SDS011;41287;47.554;7.844;2023-01-29T05:35:59;2.47;;;1.40;;
55417;SDS011;41287;47.554;7.844;2023-01-29T05:38:25;3.42;;;1.63;;
55417;SDS011;41287;47.554;7.844;2023-01-29T05:40:50;2.67;;;1.48;;
55417;SDS011;41287;47.554;7.844;2023-01-29T05:43:16;1.80;;;1.30;;
55417;SDS011;41287;47.554;7.844;2023-01-29T05:45:50;2.83;;;1.55;;
55417;SDS011;41287;47.554;7.844;2023-01-29T05:48:19;2.60;;;1.63;;
55417;SDS011;41287;47.554;7.844;2023-01-29T05:50:46;3.95;;;1.63;;
55417;SDS011;41287;47.554;7.844;2023-01-29T05:53:12;3.80;;;1.55;;
55417;SDS011;41287;47.554;7.844;2023-01-29T05:55:37;3.05;;;1.70;;
55417;SDS011;41287;47.554;7.844;2023-01-29T05:58:02;3.53;;;1.45;;
55417;SDS011;41287;47.554;7.844;2023-01-29T06:00:28;2.67;;;1.42;;
55417;SDS011;41287;47.554;7.844;2023-01-29T06:02:53;3.13;;;1.27;;
55417;SDS011;41287;47.554;7.844;2023-01-29T06:05:19;2.92;;;1.52;;
55417;SDS011;41287;47.554;7.844;2023-01-29T06:07:44;4.13;;;1.77;;
55417;SDS011;41287;47.554;7.844;2023-01-29T06:10:11;2.72;;;1.60;;
55417;SDS011;41287;47.554;7.844;2023-01-29T06:12:38;4.70;;;1.48;;
55417;SDS011;41287;47.554;7.844;2023-01-29T06:15:04;2.53;;;1.40;;
55417;SDS011;41287;47.554;7.844;2023-01-29T06:17:30;3.88;;;1.67;;
55417;SDS011;41287;47.554;7.844;2023-01-29T06:19:55;3.30;;;1.67;;
55417;SDS011;41287;47.554;7.844;2023-01-29T06:22:20;6.18;;;1.48;;
55417;SDS011;41287;47.554;7.844;2023-01-29T06:24:46;3.97;;;1.90;;
55417;SDS011;41287;47.554;7.844;2023-01-29T06:27:17;2.40;;;1.58;;
55417;SDS011;41287;47.554;7.844;2023-01-29T06:29:42;3.42;;;1.58;;
55417;SDS011;41287;47.554;7.844;2023-01-29T06:32:09;3.67;;;1.70;;
55417;SDS011;41287;47.554;7.844;2023-01-29T06:34:35;2.60;;;1.58;;
55417;SDS011;41287;47.554;7.844;2023-01-29T06:37:00;4.90;;;1.70;;
55417;SDS011;41287;47.554;7.844;2023-01-29T06:39:26;1.60;;;1.20;;
55417;SDS011;41287;47.554;7.844;2023-01-29T06:41:51;3.15;;;1.77;;
55417;SDS011;41287;47.554;7.844;2023-01-29T06:44:21;2.10;;;1.40;;
55417;SDS011;41287;47.554;7.844;2023-01-29T06:46:46;2.15;;;1.33;;
55417;SDS011;41287;47.554;7.844;2023-01-29T06:49:12;2.22;;;1.40;;
55417;SDS011;41287;47.554;7.844;2023-01-29T06:51:37;2.67;;;1.48;;
55417;SDS011;41287;47.554;7.844;2023-01-29T06:54:05;2.78;;;1.70;;
55417;SDS011;41287;47.554;7.844;2023-01-29T06:56:32;3.65;;;1.40;;
55417;SDS011;41287;47.554;7.844;2023-01-29T06:58:57;2.67;;;1.63;;
55417;SDS011;41287;47.554;7.844;2023-01-29T07:01:23;1.70;;;1.20;;
55417;SDS011;41287;47.554;7.844;2023-01-29T07:03:49;1.92;;;1.42;;
55417;SDS011;41287;47.554;7.844;2023-01-29T07:06:16;2.28;;;1.48;;
55417;SDS011;41287;47.554;7.844;2023-01-29T07:08:42;2.55;;;1.42;;
55417;SDS011;41287;47.554;7.844;2023-01-29T07:11:07;2.85;;;1.55;;
55417;SDS011;41287;47.554;7.844;2023-01-29T07:13:32;3.63;;;1.50;;
55417;SDS011;41287;47.554;7.844;2023-01-29T07:15:58;2.35;;;1.42;;
55417;SDS011;41287;47.554;7.844;2023-01-29T07:18:27;2.70;;;1.38;;
55417;SDS011;41287;47.554;7.844;2023-01-29T07:20:52;2.47;;;1.60;;
55417;SDS011;41287;47.554;7.844;2023-01-29T07:23:18;2.60;;;1.55;;
55417;SDS011;41287;47.554;7.844;2023-01-29T07:25:43;2.72;;;1.33;;
55417;SDS011;41287;47.554;7.844;2023-01-29T07:28:09;3.15;;;1.25;;
55417;SDS011;41287;47.554;7.844;2023-01-29T07:30:37;3.90;;;1.55;;
55417;SDS011;41287;47.554;7.844;2023-01-29T07:33:05;2.80;;;1.60;;
55417;SDS011;41287;47.554;7.844;2023-01-29T07:35:38;2.72;;;1.70;;
55417;SDS011;41287;47.554;7.844;2023-01-29T07:38:05;3.00;;;1.52;;
55417;SDS011;41287;47.554;7.844;2023-01-29T07:40:32;3.33;;;1.20;;
55417;SDS011;41287;47.554;7.844;2023-01-29T07:43:01;3.20;;;1.40;;
55417;SDS011;41287;47.554;7.844;2023-01-29T07:45:29;3.45;;;1.45;;
55417;SDS011;41287;47.554;7.844;2023-01-29T07:47:55;2.17;;;1.38;;
55417;SDS011;41287;47.554;7.844;2023-01-29T07:50:24;2.55;;;1.55;;
55417;SDS011;41287;47.554;7.844;2023-01-29T07:52:51;3.83;;;1.75;;
55417;SDS011;41287;47.554;7.844;2023-01-29T07:55:18;5.05;;;1.35;;
55417;SDS011;41287;47.554;7.844;2023-01-29T07:57:44;3.47;;;1.77;;
55417;SDS011;41287;47.554;7.844;2023-01-29T08:00:10;2.10;;;1.25;;
55417;SDS011;41287;47.554;7.844;2023-01-29T08:02:39;2.47;;;1.63;;
55417;SDS011;41287;47.554;7.844;2023-01-29T08:05:05;3.53;;;1.65;;
55417;SDS011;41287;47.554;7.844;2023-01-29T08:07:30;4.00;;;2.03;;
55417;SDS011;41287;47.554;7.844;2023-01-29T08:09:56;3.00;;;1.42;;
55417;SDS011;41287;47.554;7.844;2023-01-29T08:12:21;4.18;;;1.30;;
55417;SDS011;41287;47.554;7.844;2023-01-29T08:14:47;4.28;;;1.55;;
55417;SDS011;41287;47.554;7.844;2023-01-29T08:17:12;3.75;;;1.25;;
55417;SDS011;41287;47.554;7.844;2023-01-29T08:19:37;2.25;;;1.02;;
55417;SDS011;41287;47.554;7.844;2023-01-29T08:22:03;2.05;;;1.23;;
55417;SDS011;41287;47.554;7.844;2023-01-29T08:24:29;3.35;;;1.20;;
55417;SDS011;41287;47.554;7.844;2023-01-29T08:26:55;2.15;;;1.00;;
55417;SDS011;41287;47.554;7.844;2023-01-29T08:29:20;3.17;;;1.20;;
55417;SDS011;41287;47.554;7.844;2023-01-29T08:31:46;2.10;;;1.15;;
55417;SDS011;41287;47.554;7.844;2023-01-29T08:34:11;5.70;;;1.27;;
55417;SDS011;41287;47.554;7.844;2023-01-29T08:36:36;3.97;;;1.20;;
55417;SDS011;41287;47.554;7.844;2023-01-29T08:39:02;3.83;;;2.10;;
55417;SDS011;41287;47.554;7.844;2023-01-29T08:41:27;5.43;;;3.20;;
55417;SDS011;41287;47.554;7.844;2023-01-29T08:43:52;5.45;;;3.50;;
55417;SDS011;41287;47.554;7.844;2023-01-29T08:46:18;5.50;;;3.95;;
55417;SDS011;41287;47.554;7.844;2023-01-29T08:48:43;8.43;;;5.03;;
55417;SDS011;41287;47.554;7.844;2023-01-29T08:51:11;7.93;;;5.10;;
55417;SDS011;41287;47.554;7.844;2023-01-29T08:53:39;8.45;;;5.47;;
55417;SDS011;41287;47.554;7.844;2023-01-29T08:56:04;11.00;;;6.50;;
55417;SDS011;41287;47.554;7.844;2023-01-29T08:58:30;10.98;;;7.10;;
55417;SDS011;41287;47.554;7.844;2023-01-29T09:00:55;10.30;;;7.20;;
55417;SDS011;41287;47.554;7.844;2023-01-29T09:03:20;12.55;;;7.72;;
55417;SDS011;41287;47.554;7.844;2023-01-29T09:05:47;11.88;;;8.23;;
55417;SDS011;41287;47.554;7.844;2023-01-29T09:08:13;12.13;;;8.25;;
55417;SDS011;41287;47.554;7.844;2023-01-29T09:10:39;12.23;;;8.18;;
55417;SDS011;41287;47.554;7.844;2023-01-29T09:13:05;12.50;;;8.70;;
55417;SDS011;41287;47.554;7.844;2023-01-29T09:15:30;12.88;;;8.98;;
55417;SDS011;41287;47.554;7.844;2023-01-29T09:18:01;12.15;;;8.43;;
55417;SDS011;41287;47.554;7.844;2023-01-29T09:20:28;11.85;;;7.88;;
55417;SDS011;41287;47.554;7.844;2023-01-29T09:22:53;7.97;;;5.97;;
55417;SDS011;41287;47.554;7.844;2023-01-29T09:25:20;8.85;;;6.10;;
55417;SDS011;41287;47.554;7.844;2023-01-29T09:27:46;9.32;;;6.30;;
55417;SDS011;41287;47.554;7.844;2023-01-29T09:30:13;10.55;;;5.95;;
55417;SDS011;41287;47.554;7.844;2023-01-29T09:32:39;10.05;;;6.60;;
55417;SDS011;41287;47.554;7.844;2023-01-29T09:35:04;9.57;;;6.32;;
55417;SDS011;41287;47.554;7.844;2023-01-29T09:37:30;9.68;;;5.10;;
55417;SDS011;41287;47.554;7.844;2023-01-29T09:39:55;8.82;;;5.25;;
55417;SDS011;41287;47.554;7.844;2023-01-29T09:42:23;9.05;;;5.57;;
55417;SDS011;41287;47.554;7.844;2023-01-29T09:47:28;7.03;;;4.50;;
55417;SDS011;41287;47.554;7.844;2023-01-29T09:49:59;7.97;;;4.18;;
55417;SDS011;41287;47.554;7.844;2023-01-29T09:52:43;7.05;;;4.07;;
55417;SDS011;41287;47.554;7.844;2023-01-29T09:55:31;8.68;;;4.03;;
55417;SDS011;41287;47.554;7.844;2023-01-29T09:58:06;5.30;;;3.65;;
55417;SDS011;41287;47.554;7.844;2023-01-29T10:00:46;6.50;;;4.00;;
55417;SDS011;41287;47.554;7.844;2023-01-29T10:06:32;7.18;;;3.42;;
55417;SDS011;41287;47.554;7.844;2023-01-29T10:11:37;6.13;;;3.00;;
55417;SDS011;41287;47.554;7.844;2023-01-29T10:14:23;8.13;;;3.05;;
55417;SDS011;41287;47.554;7.844;2023-01-29T10:20:00;5.65;;;3.08;;
55417;SDS011;41287;47.554;7.844;2023-01-29T10:25:15;6.32;;;2.63;;
55417;SDS011;41287;47.554;7.844;2023-01-29T10:27:47;6.43;;;2.35;;
55417;SDS011;41287;47.554;7.844;2023-01-29T10:30:26;5.65;;;2.45;;
55417;SDS011;41287;47.554;7.844;2023-01-29T10:32:53;6.13;;;2.63;;
55417;SDS011;41287;47.554;7.844;2023-01-29T10:35:23;8.57;;;2.65;;
55417;SDS011;41287;47.554;7.844;2023-01-29T10:37:55;6.65;;;2.40;;
55417;SDS011;41287;47.554;7.844;2023-01-29T10:41:00;5.63;;;2.42;;
55417;SDS011;41287;47.554;7.844;2023-01-29T11:00:11;3.28;;;1.92;;
55417;SDS011;41287;47.554;7.844;2023-01-29T11:02:46;5.93;;;1.92;;
55417;SDS011;41287;47.554;7.844;2023-01-29T11:05:25;2.83;;;1.70;;
55417;SDS011;41287;47.554;7.844;2023-01-29T11:08:03;5.30;;;2.13;;
55417;SDS011;41287;47.554;7.844;2023-01-29T11:10:53;6.32;;;2.17;;
55417;SDS011;41287;47.554;7.844;2023-01-29T11:13:21;8.27;;;2.13;;
55417;SDS011;41287;47.554;7.844;2023-01-29T11:15:51;8.13;;;2.35;;
55417;SDS011;41287;47.554;7.844;2023-01-29T11:18:19;5.05;;;2.00;;
55417;SDS011;41287;47.554;7.844;2023-01-29T11:20:44;3.78;;;1.70;;
55417;SDS011;41287;47.554;7.844;2023-01-29T11:23:22;3.80;;;1.83;;
55417;SDS011;41287;47.554;7.844;2023-01-29T11:25:51;3.70;;;1.70;;
55417;SDS011;41287;47.554;7.844;2023-01-29T11:28:33;3.97;;;1.90;;
55417;SDS011;41287;47.554;7.844;2023-01-29T11:31:25;9.15;;;1.92;;
55417;SDS011;41287;47.554;7.844;2023-01-29T11:34:02;3.00;;;1.60;;
55417;SDS011;41287;47.554;7.844;2023-01-29T11:36:40;2.33;;;1.30;;
55417;SDS011;41287;47.554;7.844;2023-01-29T11:41:47;3.75;;;1.48;;
55417;SDS011;41287;47.554;7.844;2023-01-29T11:44:20;5.47;;;1.50;;
55417;SDS011;41287;47.554;7.844;2023-01-29T11:49:45;3.95;;;1.67;;
55417;SDS011;41287;47.554;7.844;2023-01-29T11:52:16;4.80;;;1.58;;
55417;SDS011;41287;47.554;7.844;2023-01-29T11:54:48;4.15;;;2.05;;
55417;SDS011;41287;47.554;7.844;2023-01-29T11:57:26;3.97;;;1.67;;
55417;SDS011;41287;47.554;7.844;2023-01-29T11:59:56;3.45;;;1.65;;
55417;SDS011;41287;47.554;7.844;2023-01-29T12:02:30;4.10;;;1.65;;
55417;SDS011;41287;47.554;7.844;2023-01-29T12:05:02;6.63;;;1.65;;
55417;SDS011;41287;47.554;7.844;2023-01-29T12:07:30;9.05;;;2.00;;
55417;SDS011;41287;47.554;7.844;2023-01-29T12:09:57;5.07;;;1.40;;
55417;SDS011;41287;47.554;7.844;2023-01-29T12:15:21;5.38;;;1.70;;
55417;SDS011;41287;47.554;7.844;2023-01-29T12:20:53;5.07;;;1.70;;
55417;SDS011;41287;47.554;7.844;2023-01-29T12:23:42;4.80;;;1.75;;
55417;SDS011;41287;47.554;7.844;2023-01-29T12:29:20;5.80;;;1.35;;
55417;SDS011;41287;47.554;7.844;2023-01-29T12:32:31;4.20;;;1.92;;
55417;SDS011;41287;47.554;7.844;2023-01-29T12:37:40;3.80;;;1.58;;
55417;SDS011;41287;47.554;7.844;2023-01-29T12:40:17;6.20;;;1.58;;
55417;SDS011;41287;47.554;7.844;2023-01-29T12:42:47;7.18;;;1.70;;
55417;SDS011;41287;47.554;7.844;2023-01-29T12:45:17;6.53;;;1.50;;
55417;SDS011;41287;47.554;7.844;2023-01-29T12:47:46;4.38;;;1.50;;
55417;SDS011;41287;47.554;7.844;2023-01-29T12:50:23;4.00;;;1.48;;
55417;SDS011;41287;47.554;7.844;2023-01-29T12:52:59;4.50;;;1.75;;
55417;SDS011;41287;47.554;7.844;2023-01-29T12:55:40;3.58;;;1.33;;
55417;SDS011;41287;47.554;7.844;2023-01-29T12:58:11;4.70;;;1.85;;
55417;SDS011;41287;47.554;7.844;2023-01-29T13:00:42;5.88;;;1.63;;
55417;SDS011;41287;47.554;7.844;2023-01-29T13:03:13;5.03;;;1.48;;
55417;SDS011;41287;47.554;7.844;2023-01-29T13:06:01;4.18;;;1.60;;
55417;SDS011;41287;47.554;7.844;2023-01-29T13:08:35;5.20;;;1.80;;
55417;SDS011;41287;47.554;7.844;2023-01-29T13:11:08;5.95;;;1.83;;
55417;SDS011;41287;47.554;7.844;2023-01-29T13:13:43;4.68;;;1.38;;
55417;SDS011;41287;47.554;7.844;2023-01-29T13:16:18;5.80;;;1.90;;
55417;SDS011;41287;47.554;7.844;2023-01-29T13:21:22;4.53;;;1.70;;
55417;SDS011;41287;47.554;7.844;2023-01-29T13:23:52;9.43;;;2.25;;
55417;SDS011;41287;47.554;7.844;2023-01-29T13:26:21;7.15;;;1.77;;
55417;SDS011;41287;47.554;7.844;2023-01-29T13:28:47;5.57;;;1.73;;
55417;SDS011;41287;47.554;7.844;2023-01-29T13:31:22;7.88;;;1.88;;
55417;SDS011;41287;47.554;7.844;2023-01-29T13:34:06;5.90;;;2.20;;
55417;SDS011;41287;47.554;7.844;2023-01-29T13:36:40;5.32;;;1.60;;
55417;SDS011;41287;47.554;7.844;2023-01-29T13:39:14;4.80;;;1.48;;
55417;SDS011;41287;47.554;7.844;2023-01-29T13:41:47;9.68;;;2.13;;
55417;SDS011;41287;47.554;7.844;2023-01-29T13:44:19;8.05;;;1.83;;
55417;SDS011;41287;47.554;7.844;2023-01-29T13:46:49;7.07;;;2.00;;
55417;SDS011;41287;47.554;7.844;2023-01-29T13:49:22;7.18;;;1.77;;
55417;SDS011;41287;47.554;7.844;2023-01-29T13:54:56;6.20;;;1.77;;
55417;SDS011;41287;47.554;7.844;2023-01-29T14:00:46;6.20;;;1.73;;
55417;SDS011;41287;47.554;7.844;2023-01-29T14:10:30;5.88;;;1.73;;
55417;SDS011;41287;47.554;7.844;2023-01-29T14:15:42;4.07;;;1.60;;
55417;SDS011;41287;47.554;7.844;2023-01-29T14:23:34;4.18;;;1.55;;
55417;SDS011;41287;47.554;7.844;2023-01-29T14:26:17;6.68;;;1.80;;
55417;SDS011;41287;47.554;7.844;2023-01-29T14:28:56;6.72;;;4.03;;
55417;SDS011;41287;47.554;7.844;2023-01-29T14:31:30;3.83;;;1.73;;
55417;SDS011;41287;47.554;7.844;2023-01-29T14:34:03;4.93;;;1.45;;
55417;SDS011;41287;47.554;7.844;2023-01-29T14:36:38;3.22;;;1.55;;
55417;SDS011;41287;47.554;7.844;2023-01-29T14:39:06;5.07;;;1.70;;
55417;SDS011;41287;47.554;7.844;2023-01-29T14:41:52;5.40;;;1.60;;
55417;SDS011;41287;47.554;7.844;2023-01-29T14:47:20;6.82;;;1.98;;
55417;SDS011;41287;47.554;7.844;2023-01-29T14:49:59;4.47;;;1.55;;
55417;SDS011;41287;47.554;7.844;2023-01-29T14:55:08;5.10;;;1.50;;
55417;SDS011;41287;47.554;7.844;2023-01-29T14:57:51;7.63;;;1.90;;
55417;SDS011;41287;47.554;7.844;2023-01-29T15:00:25;7.93;;;1.95;;
55417;SDS011;41287;47.554;7.844;2023-01-29T15:02:53;5.45;;;1.73;;
55417;SDS011;41287;47.554;7.844;2023-01-29T15:05:23;7.53;;;1.88;;
55417;SDS011;41287;47.554;7.844;2023-01-29T15:08:05;6.00;;;2.10;;
55417;SDS011;41287;47.554;7.844;2023-01-29T15:10:50;7.38;;;1.92;;
55417;SDS011;41287;47.554;7.844;2023-01-29T15:17:03;6.68;;;1.92;;
55417;SDS011;41287;47.554;7.844;2023-01-29T15:19:41;5.22;;;1.90;;
55417;SDS011;41287;47.554;7.844;2023-01-29T15:22:17;6.38;;;2.00;;
55417;SDS011;41287;47.554;7.844;2023-01-29T15:25:00;6.05;;;1.90;;
55417;SDS011;41287;47.554;7.844;2023-01-29T15:27:31;3.65;;;1.70;;
55417;SDS011;41287;47.554;7.844;2023-01-29T15:29:59;5.25;;;1.42;;
55417;SDS011;41287;47.554;7.844;2023-01-29T15:32:40;9.48;;;1.95;;
55417;SDS011;41287;47.554;7.844;2023-01-29T15:35:07;5.18;;;1.65;;
55417;SDS011;41287;47.554;7.844;2023-01-29T15:37:35;5.18;;;1.75;;
55417;SDS011;41287;47.554;7.844;2023-01-29T15:40:01;9.32;;;1.75;;
55417;SDS011;41287;47.554;7.844;2023-01-29T15:42:28;4.78;;;1.60;;
55417;SDS011;41287;47.554;7.844;2023-01-29T15:45:18;6.72;;;1.88;;
55417;SDS011;41287;47.554;7.844;2023-01-29T15:47:46;4.05;;;1.75;;
55417;SDS011;41287;47.554;7.844;2023-01-29T15:50:12;4.65;;;1.38;;
55417;SDS011;41287;47.554;7.844;2023-01-29T15:52:38;4.57;;;1.45;;
55417;SDS011;41287;47.554;7.844;2023-01-29T15:55:04;3.75;;;1.70;;
55417;SDS011;41287;47.554;7.844;2023-01-29T15:57:35;8.80;;;1.77;;
55417;SDS011;41287;47.554;7.844;2023-01-29T16:00:05;6.93;;;2.08;;
55417;SDS011;41287;47.554;7.844;2023-01-29T16:02:39;9.45;;;1.70;;
55417;SDS011;41287;47.554;7.844;2023-01-29T16:05:13;4.75;;;1.63;;
55417;SDS011;41287;47.554;7.844;2023-01-29T16:07:41;3.13;;;1.23;;
55417;SDS011;41287;47.554;7.844;2023-01-29T16:10:29;5.22;;;1.75;;
55417;SDS011;41287;47.554;7.844;2023-01-29T16:12:55;7.10;;;1.70;;
55417;SDS011;41287;47.554;7.844;2023-01-29T16:17:54;5.57;;;1.37;;
55417;SDS011;41287;47.554;7.844;2023-01-29T16:20:28;5.75;;;1.73;;
55417;SDS011;41287;47.554;7.844;2023-01-29T16:22:57;9.07;;;1.80;;
55417;SDS011;41287;47.554;7.844;2023-01-29T16:25:23;6.75;;;1.70;;
55417;SDS011;41287;47.554;7.844;2023-01-29T16:27:48;5.55;;;1.65;;
55417;SDS011;41287;47.554;7.844;2023-01-29T16:30:16;6.30;;;1.50;;
55417;SDS011;41287;47.554;7.844;2023-01-29T16:32:42;9.80;;;2.08;;
55417;SDS011;41287;47.554;7.844;2023-01-29T16:35:11;7.13;;;2.25;;
55417;SDS011;41287;47.554;7.844;2023-01-29T16:37:40;7.78;;;2.22;;
55417;SDS011;41287;47.554;7.844;2023-01-29T16:40:14;5.63;;;1.92;;
55417;SDS011;41287;47.554;7.844;2023-01-29T16:42:56;3.85;;;1.85;;
55417;SDS011;41287;47.554;7.844;2023-01-29T16:46:00;5.07;;;2.60;;
55417;SDS011;41287;47.554;7.844;2023-01-29T16:48:31;11.30;;;2.60;;
55417;SDS011;41287;47.554;7.844;2023-01-29T16:51:02;10.40;;;3.63;;
55417;SDS011;41287;47.554;7.844;2023-01-29T16:53:30;15.80;;;5.32;;
55417;SDS011;41287;47.554;7.844;2023-01-29T16:56:00;16.42;;;6.63;;
55417;SDS011;41287;47.554;7.844;2023-01-29T16:58:28;18.05;;;7.65;;
55417;SDS011;41287;47.554;7.844;2023-01-29T17:01:12;23.48;;;9.30;;
55417;SDS011;41287;47.554;7.844;2023-01-29T17:03:38;22.88;;;10.68;;
55417;SDS011;41287;47.554;7.844;2023-01-29T17:06:07;23.95;;;11.48;;
55417;SDS011;41287;47.554;7.844;2023-01-29T17:08:37;23.52;;;10.80;;
55417;SDS011;41287;47.554;7.844;2023-01-29T17:11:06;21.77;;;9.77;;
55417;SDS011;41287;47.554;7.844;2023-01-29T17:18:46;23.23;;;10.43;;
55417;SDS011;41287;47.554;7.844;2023-01-29T17:21:11;20.33;;;9.57;;